sensor_id;sensor_type;location;lat;lon;timestamp;P1;durP1;ratioP1;P2;durP2;ratioP2
8819;SDS011;4446;50.876;4.736;2022-07-29T00:01:34;1.88;;;1.60;;
8819;SDS011;4446;50.876;4.736;2022-07-29T00:04:01;5.35;;;2.25;;
8819;SDS011;4446;50.876;4.736;2022-07-29T00:06:28;2.95;;;1.88;;
8819;SDS011;4446;50.876;4.736;2022-07-29T00:08:55;2.10;;;1.70;;
8819;SDS011;4446;50.876;4.736;2022-07-29T00:11:22;1.70;;;1.60;;
8819;SDS011;4446;50.876;4.736;2022-07-29T00:13:50;3.00;;;1.60;;
8819;SDS011;4446;50.876;4.736;2022-07-29T00:16:17;2.97;;;1.80;;
8819;SDS011;4446;50.876;4.736;2022-07-29T00:18:44;3.72;;;1.85;;
8819;SDS011;4446;50.876;4.736;2022-07-29T00:21:11;2.58;;;1.70;;
8819;SDS011;4446;50.876;4.736;2022-07-29T00:23:38;2.35;;;2.08;;
8819;SDS011;4446;50.876;4.736;2022-07-29T00:26:05;2.00;;;1.80;;
8819;SDS011;4446;50.876;4.736;2022-07-29T00:28:32;3.97;;;1.90;;
8819;SDS011;4446;50.876;4.736;2022-07-29T00:31:01;2.90;;;2.00;;
8819;SDS011;4446;50.876;4.736;2022-07-29T00:33:28;2.67;;;2.00;;
8819;SDS011;4446;50.876;4.736;2022-07-29T00:35:55;3.75;;;1.98;;
8819;SDS011;4446;50.876;4.736;2022-07-29T00:38:21;3.53;;;1.92;;
8819;SDS011;4446;50.876;4.736;2022-07-29T00:40:48;2.65;;;1.83;;
8819;SDS011;4446;50.876;4.736;2022-07-29T00:43:15;2.70;;;1.90;;
8819;SDS011;4446;50.876;4.736;2022-07-29T00:45:43;3.42;;;1.80;;
8819;SDS011;4446;50.876;4.736;2022-07-29T00:48:12;2.85;;;1.65;;
8819;SDS011;4446;50.876;4.736;2022-07-29T00:50:39;2.58;;;2.20;;
8819;SDS011;4446;50.876;4.736;2022-07-29T00:53:07;4.18;;;1.80;;
8819;SDS011;4446;50.876;4.736;2022-07-29T00:55:34;3.22;;;2.00;;
8819;SDS011;4446;50.876;4.736;2022-07-29T00:58:02;2.13;;;1.85;;
8819;SDS011;4446;50.876;4.736;2022-07-29T01:00:29;2.78;;;1.73;;
8819;SDS011;4446;50.876;4.736;2022-07-29T01:02:56;2.60;;;1.80;;
8819;SDS011;4446;50.876;4.736;2022-07-29T01:05:26;2.72;;;2.20;;
8819;SDS011;4446;50.876;4.736;2022-07-29T01:07:54;2.80;;;1.73;;
8819;SDS011;4446;50.876;4.736;2022-07-29T01:10:22;2.33;;;1.90;;
8819;SDS011;4446;50.876;4.736;2022-07-29T01:12:51;2.55;;;1.70;;
8819;SDS011;4446;50.876;4.736;2022-07-29T01:15:20;5.55;;;2.38;;
8819;SDS011;4446;50.876;4.736;2022-07-29T01:17:49;2.08;;;1.65;;
8819;SDS011;4446;50.876;4.736;2022-07-29T01:20:24;4.95;;;2.20;;
8819;SDS011;4446;50.876;4.736;2022-07-29T01:26:04;2.28;;;1.70;;
8819;SDS011;4446;50.876;4.736;2022-07-29T01:28:54;2.30;;;1.88;;
8819;SDS011;4446;50.876;4.736;2022-07-29T01:31:28;7.60;;;2.20;;
8819;SDS011;4446;50.876;4.736;2022-07-29T01:34:03;2.88;;;2.00;;
8819;SDS011;4446;50.876;4.736;2022-07-29T01:36:34;2.40;;;2.03;;
8819;SDS011;4446;50.876;4.736;2022-07-29T01:39:10;4.32;;;2.00;;
8819;SDS011;4446;50.876;4.736;2022-07-29T01:41:42;2.35;;;1.90;;
8819;SDS011;4446;50.876;4.736;2022-07-29T01:44:18;3.72;;;1.90;;
8819;SDS011;4446;50.876;4.736;2022-07-29T01:46:52;3.88;;;1.58;;
8819;SDS011;4446;50.876;4.736;2022-07-29T01:49:25;4.38;;;2.08;;
8819;SDS011;4446;50.876;4.736;2022-07-29T01:51:57;1.95;;;1.75;;
8819;SDS011;4446;50.876;4.736;2022-07-29T01:54:29;2.65;;;1.92;;
8819;SDS011;4446;50.876;4.736;2022-07-29T01:57:00;3.33;;;1.63;;
8819;SDS011;4446;50.876;4.736;2022-07-29T01:59:31;2.70;;;2.22;;
8819;SDS011;4446;50.876;4.736;2022-07-29T02:02:01;3.65;;;2.08;;
8819;SDS011;4446;50.876;4.736;2022-07-29T02:04:28;3.55;;;1.90;;
8819;SDS011;4446;50.876;4.736;2022-07-29T02:06:59;3.80;;;2.00;;
8819;SDS011;4446;50.876;4.736;2022-07-29T02:09:28;4.00;;;2.25;;
8819;SDS011;4446;50.876;4.736;2022-07-29T02:11:57;3.47;;;2.03;;
8819;SDS011;4446;50.876;4.736;2022-07-29T02:14:28;3.85;;;2.22;;
8819;SDS011;4446;50.876;4.736;2022-07-29T02:16:59;3.00;;;2.17;;
8819;SDS011;4446;50.876;4.736;2022-07-29T02:19:28;2.78;;;2.20;;
8819;SDS011;4446;50.876;4.736;2022-07-29T02:21:58;3.35;;;2.13;;
8819;SDS011;4446;50.876;4.736;2022-07-29T02:24:26;3.88;;;2.30;;
8819;SDS011;4446;50.876;4.736;2022-07-29T02:26:54;4.05;;;2.08;;
8819;SDS011;4446;50.876;4.736;2022-07-29T02:29:23;4.03;;;2.35;;
8819;SDS011;4446;50.876;4.736;2022-07-29T02:31:54;4.63;;;2.00;;
8819;SDS011;4446;50.876;4.736;2022-07-29T02:34:23;2.50;;;2.10;;
8819;SDS011;4446;50.876;4.736;2022-07-29T02:36:51;2.60;;;2.15;;
8819;SDS011;4446;50.876;4.736;2022-07-29T02:39:20;3.63;;;2.20;;
8819;SDS011;4446;50.876;4.736;2022-07-29T02:41:50;3.03;;;2.20;;
8819;SDS011;4446;50.876;4.736;2022-07-29T02:44:21;3.38;;;2.10;;
8819;SDS011;4446;50.876;4.736;2022-07-29T02:46:52;2.10;;;1.70;;
8819;SDS011;4446;50.876;4.736;2022-07-29T02:49:30;4.60;;;2.13;;
8819;SDS011;4446;50.876;4.736;2022-07-29T02:52:02;4.00;;;2.20;;
8819;SDS011;4446;50.876;4.736;2022-07-29T02:54:31;3.38;;;2.33;;
8819;SDS011;4446;50.876;4.736;2022-07-29T02:57:06;2.90;;;2.53;;
8819;SDS011;4446;50.876;4.736;2022-07-29T02:59:40;3.35;;;2.30;;
8819;SDS011;4446;50.876;4.736;2022-07-29T03:02:11;2.65;;;2.08;;
8819;SDS011;4446;50.876;4.736;2022-07-29T03:04:41;4.15;;;2.80;;
8819;SDS011;4446;50.876;4.736;2022-07-29T03:07:09;2.53;;;2.33;;
8819;SDS011;4446;50.876;4.736;2022-07-29T03:09:40;3.70;;;2.67;;
8819;SDS011;4446;50.876;4.736;2022-07-29T03:12:08;4.43;;;2.78;;
8819;SDS011;4446;50.876;4.736;2022-07-29T03:14:35;3.92;;;2.63;;
8819;SDS011;4446;50.876;4.736;2022-07-29T03:17:03;4.18;;;2.42;;
8819;SDS011;4446;50.876;4.736;2022-07-29T03:19:32;2.78;;;2.50;;
8819;SDS011;4446;50.876;4.736;2022-07-29T03:21:59;3.03;;;2.72;;
8819;SDS011;4446;50.876;4.736;2022-07-29T03:24:28;2.60;;;2.40;;
8819;SDS011;4446;50.876;4.736;2022-07-29T03:26:56;3.60;;;3.05;;
8819;SDS011;4446;50.876;4.736;2022-07-29T03:29:24;4.47;;;3.00;;
8819;SDS011;4446;50.876;4.736;2022-07-29T03:31:51;5.05;;;2.70;;
8819;SDS011;4446;50.876;4.736;2022-07-29T03:34:18;6.13;;;3.05;;
8819;SDS011;4446;50.876;4.736;2022-07-29T03:36:47;8.45;;;2.72;;
8819;SDS011;4446;50.876;4.736;2022-07-29T03:39:18;3.28;;;2.75;;
8819;SDS011;4446;50.876;4.736;2022-07-29T03:41:50;7.20;;;2.80;;
8819;SDS011;4446;50.876;4.736;2022-07-29T03:44:21;5.68;;;2.53;;
8819;SDS011;4446;50.876;4.736;2022-07-29T03:46:49;3.35;;;2.60;;
8819;SDS011;4446;50.876;4.736;2022-07-29T03:49:19;6.43;;;2.78;;
8819;SDS011;4446;50.876;4.736;2022-07-29T03:51:49;4.68;;;2.70;;
8819;SDS011;4446;50.876;4.736;2022-07-29T03:54:16;2.92;;;2.60;;
8819;SDS011;4446;50.876;4.736;2022-07-29T03:56:45;5.03;;;2.88;;
8819;SDS011;4446;50.876;4.736;2022-07-29T03:59:15;4.95;;;3.00;;
8819;SDS011;4446;50.876;4.736;2022-07-29T04:01:44;3.08;;;2.78;;
8819;SDS011;4446;50.876;4.736;2022-07-29T04:04:12;4.68;;;2.90;;
8819;SDS011;4446;50.876;4.736;2022-07-29T04:06:40;3.20;;;2.90;;
8819;SDS011;4446;50.876;4.736;2022-07-29T04:09:09;3.05;;;2.63;;
8819;SDS011;4446;50.876;4.736;2022-07-29T04:11:38;4.35;;;3.00;;
8819;SDS011;4446;50.876;4.736;2022-07-29T04:14:06;4.13;;;3.00;;
8819;SDS011;4446;50.876;4.736;2022-07-29T04:16:33;4.90;;;2.80;;
8819;SDS011;4446;50.876;4.736;2022-07-29T04:19:00;3.22;;;2.85;;
8819;SDS011;4446;50.876;4.736;2022-07-29T04:21:27;4.30;;;2.63;;
8819;SDS011;4446;50.876;4.736;2022-07-29T04:23:54;3.88;;;3.10;;
8819;SDS011;4446;50.876;4.736;2022-07-29T04:26:22;4.20;;;2.95;;
8819;SDS011;4446;50.876;4.736;2022-07-29T04:28:49;3.15;;;2.63;;
8819;SDS011;4446;50.876;4.736;2022-07-29T04:31:16;3.33;;;2.60;;
8819;SDS011;4446;50.876;4.736;2022-07-29T04:33:43;4.45;;;3.05;;
8819;SDS011;4446;50.876;4.736;2022-07-29T04:36:10;3.22;;;2.90;;
8819;SDS011;4446;50.876;4.736;2022-07-29T04:38:38;3.15;;;2.85;;
8819;SDS011;4446;50.876;4.736;2022-07-29T04:41:05;5.30;;;2.97;;
8819;SDS011;4446;50.876;4.736;2022-07-29T04:43:35;4.10;;;2.80;;
8819;SDS011;4446;50.876;4.736;2022-07-29T04:46:02;3.80;;;2.70;;
8819;SDS011;4446;50.876;4.736;2022-07-29T04:48:29;4.35;;;2.95;;
8819;SDS011;4446;50.876;4.736;2022-07-29T04:50:56;4.90;;;2.80;;
8819;SDS011;4446;50.876;4.736;2022-07-29T04:53:23;3.00;;;2.70;;
8819;SDS011;4446;50.876;4.736;2022-07-29T04:55:50;4.05;;;2.70;;
8819;SDS011;4446;50.876;4.736;2022-07-29T04:58:17;3.47;;;2.67;;
8819;SDS011;4446;50.876;4.736;2022-07-29T05:00:46;3.03;;;2.72;;
8819;SDS011;4446;50.876;4.736;2022-07-29T05:03:13;3.80;;;2.78;;
8819;SDS011;4446;50.876;4.736;2022-07-29T05:05:39;4.43;;;3.05;;
8819;SDS011;4446;50.876;4.736;2022-07-29T05:08:07;3.65;;;2.90;;
8819;SDS011;4446;50.876;4.736;2022-07-29T05:10:34;3.28;;;2.97;;
8819;SDS011;4446;50.876;4.736;2022-07-29T05:13:03;3.65;;;2.80;;
8819;SDS011;4446;50.876;4.736;2022-07-29T05:15:31;4.15;;;2.83;;
8819;SDS011;4446;50.876;4.736;2022-07-29T05:18:00;4.43;;;3.13;;
8819;SDS011;4446;50.876;4.736;2022-07-29T05:20:27;4.03;;;3.15;;
8819;SDS011;4446;50.876;4.736;2022-07-29T05:22:54;3.05;;;2.70;;
8819;SDS011;4446;50.876;4.736;2022-07-29T05:25:22;4.25;;;3.17;;
8819;SDS011;4446;50.876;4.736;2022-07-29T05:27:50;4.72;;;3.00;;
8819;SDS011;4446;50.876;4.736;2022-07-29T05:30:17;6.90;;;3.88;;
8819;SDS011;4446;50.876;4.736;2022-07-29T05:32:45;3.95;;;3.20;;
8819;SDS011;4446;50.876;4.736;2022-07-29T05:35:14;3.85;;;3.35;;
8819;SDS011;4446;50.876;4.736;2022-07-29T05:37:42;4.35;;;3.63;;
8819;SDS011;4446;50.876;4.736;2022-07-29T05:40:09;5.63;;;3.30;;
8819;SDS011;4446;50.876;4.736;2022-07-29T05:42:36;3.80;;;3.50;;
8819;SDS011;4446;50.876;4.736;2022-07-29T05:45:04;4.43;;;3.42;;
8819;SDS011;4446;50.876;4.736;2022-07-29T05:47:31;3.90;;;3.50;;
8819;SDS011;4446;50.876;4.736;2022-07-29T05:49:58;4.30;;;3.47;;
8819;SDS011;4446;50.876;4.736;2022-07-29T05:52:27;3.92;;;3.30;;
8819;SDS011;4446;50.876;4.736;2022-07-29T05:54:54;3.95;;;3.55;;
8819;SDS011;4446;50.876;4.736;2022-07-29T05:57:22;4.53;;;3.75;;
8819;SDS011;4446;50.876;4.736;2022-07-29T05:59:50;4.22;;;3.65;;
8819;SDS011;4446;50.876;4.736;2022-07-29T06:02:17;3.80;;;3.15;;
8819;SDS011;4446;50.876;4.736;2022-07-29T06:04:44;7.43;;;4.05;;
8819;SDS011;4446;50.876;4.736;2022-07-29T06:07:11;4.30;;;3.80;;
8819;SDS011;4446;50.876;4.736;2022-07-29T06:09:40;5.63;;;3.35;;
8819;SDS011;4446;50.876;4.736;2022-07-29T06:12:07;4.18;;;3.50;;
8819;SDS011;4446;50.876;4.736;2022-07-29T06:14:34;3.80;;;3.42;;
8819;SDS011;4446;50.876;4.736;2022-07-29T06:17:03;4.32;;;3.53;;
8819;SDS011;4446;50.876;4.736;2022-07-29T06:19:30;5.00;;;4.03;;
8819;SDS011;4446;50.876;4.736;2022-07-29T06:22:00;4.35;;;3.95;;
8819;SDS011;4446;50.876;4.736;2022-07-29T06:24:27;4.57;;;3.88;;
8819;SDS011;4446;50.876;4.736;2022-07-29T06:26:56;3.95;;;3.45;;
8819;SDS011;4446;50.876;4.736;2022-07-29T06:29:23;4.97;;;4.32;;
8819;SDS011;4446;50.876;4.736;2022-07-29T06:31:50;4.10;;;3.70;;
8819;SDS011;4446;50.876;4.736;2022-07-29T06:34:17;4.53;;;3.90;;
8819;SDS011;4446;50.876;4.736;2022-07-29T06:36:45;5.15;;;3.90;;
8819;SDS011;4446;50.876;4.736;2022-07-29T06:39:12;5.78;;;4.15;;
8819;SDS011;4446;50.876;4.736;2022-07-29T06:41:39;5.72;;;4.28;;
8819;SDS011;4446;50.876;4.736;2022-07-29T06:44:07;5.45;;;4.15;;
8819;SDS011;4446;50.876;4.736;2022-07-29T06:46:34;5.28;;;4.13;;
8819;SDS011;4446;50.876;4.736;2022-07-29T06:49:01;5.03;;;4.32;;
8819;SDS011;4446;50.876;4.736;2022-07-29T06:51:28;5.45;;;3.83;;
8819;SDS011;4446;50.876;4.736;2022-07-29T06:53:55;4.90;;;3.90;;
8819;SDS011;4446;50.876;4.736;2022-07-29T06:56:23;8.45;;;4.20;;
8819;SDS011;4446;50.876;4.736;2022-07-29T06:58:51;3.75;;;3.45;;
8819;SDS011;4446;50.876;4.736;2022-07-29T07:01:19;6.50;;;4.38;;
8819;SDS011;4446;50.876;4.736;2022-07-29T07:03:46;5.63;;;4.13;;
8819;SDS011;4446;50.876;4.736;2022-07-29T07:06:14;5.57;;;4.03;;
8819;SDS011;4446;50.876;4.736;2022-07-29T07:08:41;5.72;;;4.13;;
8819;SDS011;4446;50.876;4.736;2022-07-29T07:11:08;5.50;;;3.70;;
8819;SDS011;4446;50.876;4.736;2022-07-29T07:13:35;4.65;;;3.80;;
8819;SDS011;4446;50.876;4.736;2022-07-29T07:16:03;4.68;;;4.05;;
8819;SDS011;4446;50.876;4.736;2022-07-29T07:18:32;5.13;;;4.57;;
8819;SDS011;4446;50.876;4.736;2022-07-29T07:20:59;5.00;;;4.35;;
8819;SDS011;4446;50.876;4.736;2022-07-29T07:23:26;6.03;;;3.90;;
8819;SDS011;4446;50.876;4.736;2022-07-29T07:25:53;6.50;;;3.90;;
8819;SDS011;4446;50.876;4.736;2022-07-29T07:28:20;5.28;;;4.00;;
8819;SDS011;4446;50.876;4.736;2022-07-29T07:30:47;4.55;;;4.10;;
8819;SDS011;4446;50.876;4.736;2022-07-29T07:33:14;5.95;;;4.07;;
8819;SDS011;4446;50.876;4.736;2022-07-29T07:35:43;6.55;;;3.88;;
8819;SDS011;4446;50.876;4.736;2022-07-29T07:38:10;5.00;;;4.35;;
8819;SDS011;4446;50.876;4.736;2022-07-29T07:40:37;4.88;;;3.80;;
8819;SDS011;4446;50.876;4.736;2022-07-29T07:43:04;7.88;;;4.50;;
8819;SDS011;4446;50.876;4.736;2022-07-29T07:45:31;5.35;;;4.20;;
8819;SDS011;4446;50.876;4.736;2022-07-29T07:47:58;5.22;;;4.35;;
8819;SDS011;4446;50.876;4.736;2022-07-29T07:50:26;5.60;;;4.38;;
8819;SDS011;4446;50.876;4.736;2022-07-29T07:52:55;4.57;;;3.83;;
8819;SDS011;4446;50.876;4.736;2022-07-29T07:55:23;5.30;;;3.92;;
8819;SDS011;4446;50.876;4.736;2022-07-29T07:57:51;4.47;;;3.95;;
8819;SDS011;4446;50.876;4.736;2022-07-29T08:00:19;4.75;;;4.00;;
8819;SDS011;4446;50.876;4.736;2022-07-29T08:02:47;5.68;;;4.38;;
8819;SDS011;4446;50.876;4.736;2022-07-29T08:05:15;4.70;;;4.07;;
8819;SDS011;4446;50.876;4.736;2022-07-29T08:07:43;5.85;;;4.00;;
8819;SDS011;4446;50.876;4.736;2022-07-29T08:10:13;5.35;;;4.15;;
8819;SDS011;4446;50.876;4.736;2022-07-29T08:12:40;5.47;;;4.30;;
8819;SDS011;4446;50.876;4.736;2022-07-29T08:15:07;5.65;;;4.10;;
8819;SDS011;4446;50.876;4.736;2022-07-29T08:17:35;6.75;;;4.35;;
8819;SDS011;4446;50.876;4.736;2022-07-29T08:20:03;5.80;;;3.75;;
8819;SDS011;4446;50.876;4.736;2022-07-29T08:22:30;4.82;;;4.10;;
8819;SDS011;4446;50.876;4.736;2022-07-29T08:24:57;5.78;;;4.20;;
8819;SDS011;4446;50.876;4.736;2022-07-29T08:27:26;5.10;;;4.15;;
8819;SDS011;4446;50.876;4.736;2022-07-29T08:29:55;5.85;;;4.30;;
8819;SDS011;4446;50.876;4.736;2022-07-29T08:32:22;5.20;;;3.85;;
8819;SDS011;4446;50.876;4.736;2022-07-29T08:34:49;5.22;;;4.15;;
8819;SDS011;4446;50.876;4.736;2022-07-29T08:37:16;4.53;;;4.05;;
8819;SDS011;4446;50.876;4.736;2022-07-29T08:39:43;5.30;;;4.05;;
8819;SDS011;4446;50.876;4.736;2022-07-29T08:42:11;4.22;;;3.83;;
8819;SDS011;4446;50.876;4.736;2022-07-29T08:44:39;4.85;;;3.72;;
8819;SDS011;4446;50.876;4.736;2022-07-29T08:47:06;4.95;;;3.80;;
8819;SDS011;4446;50.876;4.736;2022-07-29T08:49:35;4.20;;;3.78;;
8819;SDS011;4446;50.876;4.736;2022-07-29T08:52:03;5.50;;;4.32;;
8819;SDS011;4446;50.876;4.736;2022-07-29T08:54:30;4.40;;;3.90;;
8819;SDS011;4446;50.876;4.736;2022-07-29T08:56:58;6.45;;;4.15;;
8819;SDS011;4446;50.876;4.736;2022-07-29T08:59:27;4.97;;;3.88;;
8819;SDS011;4446;50.876;4.736;2022-07-29T09:01:57;4.25;;;3.85;;
8819;SDS011;4446;50.876;4.736;2022-07-29T09:04:27;6.45;;;3.70;;
8819;SDS011;4446;50.876;4.736;2022-07-29T09:06:59;4.93;;;3.72;;
8819;SDS011;4446;50.876;4.736;2022-07-29T09:09:30;3.75;;;3.40;;
8819;SDS011;4446;50.876;4.736;2022-07-29T09:11:58;6.00;;;3.85;;
8819;SDS011;4446;50.876;4.736;2022-07-29T09:14:25;4.10;;;3.70;;
8819;SDS011;4446;50.876;4.736;2022-07-29T09:16:53;3.47;;;3.17;;
8819;SDS011;4446;50.876;4.736;2022-07-29T09:19:24;4.75;;;3.38;;
8819;SDS011;4446;50.876;4.736;2022-07-29T09:21:52;3.95;;;3.60;;
8819;SDS011;4446;50.876;4.736;2022-07-29T09:24:36;4.30;;;3.40;;
8819;SDS011;4446;50.876;4.736;2022-07-29T09:27:08;4.30;;;3.38;;
8819;SDS011;4446;50.876;4.736;2022-07-29T09:29:47;4.28;;;3.00;;
8819;SDS011;4446;50.876;4.736;2022-07-29T09:32:22;4.20;;;2.72;;
8819;SDS011;4446;50.876;4.736;2022-07-29T09:34:50;3.42;;;3.13;;
8819;SDS011;4446;50.876;4.736;2022-07-29T09:37:27;3.42;;;3.13;;
8819;SDS011;4446;50.876;4.736;2022-07-29T09:39:55;4.55;;;2.67;;
8819;SDS011;4446;50.876;4.736;2022-07-29T09:42:27;2.80;;;2.50;;
8819;SDS011;4446;50.876;4.736;2022-07-29T09:44:57;4.35;;;2.80;;
8819;SDS011;4446;50.876;4.736;2022-07-29T09:47:25;2.60;;;2.40;;
8819;SDS011;4446;50.876;4.736;2022-07-29T09:50:09;2.70;;;2.17;;
8819;SDS011;4446;50.876;4.736;2022-07-29T09:52:44;3.45;;;2.38;;
8819;SDS011;4446;50.876;4.736;2022-07-29T09:55:12;4.53;;;2.35;;
8819;SDS011;4446;50.876;4.736;2022-07-29T09:57:39;2.60;;;2.40;;
8819;SDS011;4446;50.876;4.736;2022-07-29T10:00:07;2.83;;;1.90;;
8819;SDS011;4446;50.876;4.736;2022-07-29T10:02:36;3.55;;;2.25;;
8819;SDS011;4446;50.876;4.736;2022-07-29T10:05:06;2.78;;;2.28;;
8819;SDS011;4446;50.876;4.736;2022-07-29T10:07:43;4.00;;;2.20;;
8819;SDS011;4446;50.876;4.736;2022-07-29T10:10:17;3.10;;;2.40;;
8819;SDS011;4446;50.876;4.736;2022-07-29T10:12:49;2.40;;;2.20;;
8819;SDS011;4446;50.876;4.736;2022-07-29T10:15:21;2.65;;;2.40;;
8819;SDS011;4446;50.876;4.736;2022-07-29T10:17:49;3.20;;;2.50;;
8819;SDS011;4446;50.876;4.736;2022-07-29T10:20:18;3.28;;;2.50;;
8819;SDS011;4446;50.876;4.736;2022-07-29T10:22:46;3.50;;;2.00;;
8819;SDS011;4446;50.876;4.736;2022-07-29T10:25:15;3.30;;;2.25;;
8819;SDS011;4446;50.876;4.736;2022-07-29T10:27:43;3.53;;;2.30;;
8819;SDS011;4446;50.876;4.736;2022-07-29T10:30:11;4.57;;;2.47;;
8819;SDS011;4446;50.876;4.736;2022-07-29T10:32:42;3.70;;;2.13;;
8819;SDS011;4446;50.876;4.736;2022-07-29T10:38:30;2.63;;;2.00;;
8819;SDS011;4446;50.876;4.736;2022-07-29T10:41:13;2.85;;;2.10;;
8819;SDS011;4446;50.876;4.736;2022-07-29T10:43:55;4.30;;;2.53;;
8819;SDS011;4446;50.876;4.736;2022-07-29T10:46:25;5.03;;;2.40;;
8819;SDS011;4446;50.876;4.736;2022-07-29T10:49:10;3.25;;;2.30;;
8819;SDS011;4446;50.876;4.736;2022-07-29T10:54:40;2.85;;;2.38;;
8819;SDS011;4446;50.876;4.736;2022-07-29T10:57:14;2.95;;;2.30;;
8819;SDS011;4446;50.876;4.736;2022-07-29T10:59:42;2.50;;;2.30;;
8819;SDS011;4446;50.876;4.736;2022-07-29T11:05:10;3.08;;;2.20;;
8819;SDS011;4446;50.876;4.736;2022-07-29T11:07:39;2.70;;;2.42;;
8819;SDS011;4446;50.876;4.736;2022-07-29T11:10:28;3.38;;;2.30;;
8819;SDS011;4446;50.876;4.736;2022-07-29T11:12:55;3.05;;;2.47;;
8819;SDS011;4446;50.876;4.736;2022-07-29T11:15:23;3.33;;;2.47;;
8819;SDS011;4446;50.876;4.736;2022-07-29T11:18:03;4.55;;;2.47;;
8819;SDS011;4446;50.876;4.736;2022-07-29T11:20:34;5.38;;;2.72;;
8819;SDS011;4446;50.876;4.736;2022-07-29T11:23:23;2.25;;;2.05;;
8819;SDS011;4446;50.876;4.736;2022-07-29T11:28:50;2.40;;;2.20;;
8819;SDS011;4446;50.876;4.736;2022-07-29T11:31:34;2.80;;;2.50;;
8819;SDS011;4446;50.876;4.736;2022-07-29T11:34:16;4.55;;;2.75;;
8819;SDS011;4446;50.876;4.736;2022-07-29T11:42:42;3.33;;;2.40;;
8819;SDS011;4446;50.876;4.736;2022-07-29T11:45:12;2.70;;;2.40;;
8819;SDS011;4446;50.876;4.736;2022-07-29T11:47:42;3.90;;;2.35;;
8819;SDS011;4446;50.876;4.736;2022-07-29T11:50:15;4.03;;;2.58;;
8819;SDS011;4446;50.876;4.736;2022-07-29T11:52:45;4.95;;;2.40;;
8819;SDS011;4446;50.876;4.736;2022-07-29T11:55:15;3.50;;;2.60;;
8819;SDS011;4446;50.876;4.736;2022-07-29T11:57:48;5.28;;;2.53;;
8819;SDS011;4446;50.876;4.736;2022-07-29T12:00:22;3.53;;;2.55;;
8819;SDS011;4446;50.876;4.736;2022-07-29T12:02:50;5.10;;;2.40;;
8819;SDS011;4446;50.876;4.736;2022-07-29T12:05:18;3.03;;;2.50;;
8819;SDS011;4446;50.876;4.736;2022-07-29T12:07:46;3.08;;;2.10;;
8819;SDS011;4446;50.876;4.736;2022-07-29T12:10:13;3.90;;;2.47;;
8819;SDS011;4446;50.876;4.736;2022-07-29T12:12:41;2.80;;;2.50;;
8819;SDS011;4446;50.876;4.736;2022-07-29T12:15:16;3.78;;;2.50;;
8819;SDS011;4446;50.876;4.736;2022-07-29T12:17:46;3.63;;;2.40;;
8819;SDS011;4446;50.876;4.736;2022-07-29T12:20:14;2.30;;;2.10;;
8819;SDS011;4446;50.876;4.736;2022-07-29T12:22:52;3.35;;;2.53;;
8819;SDS011;4446;50.876;4.736;2022-07-29T12:25:20;3.83;;;2.65;;
8819;SDS011;4446;50.876;4.736;2022-07-29T12:27:56;4.25;;;2.10;;
8819;SDS011;4446;50.876;4.736;2022-07-29T12:30:35;3.40;;;2.50;;
8819;SDS011;4446;50.876;4.736;2022-07-29T12:33:11;4.78;;;2.47;;
8819;SDS011;4446;50.876;4.736;2022-07-29T12:35:40;3.28;;;2.33;;
8819;SDS011;4446;50.876;4.736;2022-07-29T12:38:09;4.32;;;2.63;;
8819;SDS011;4446;50.876;4.736;2022-07-29T12:40:37;4.28;;;2.70;;
8819;SDS011;4446;50.876;4.736;2022-07-29T12:43:06;3.10;;;2.50;;
8819;SDS011;4446;50.876;4.736;2022-07-29T12:45:40;4.30;;;2.72;;
8819;SDS011;4446;50.876;4.736;2022-07-29T12:48:09;3.20;;;2.28;;
8819;SDS011;4446;50.876;4.736;2022-07-29T12:50:50;3.03;;;2.58;;
8819;SDS011;4446;50.876;4.736;2022-07-29T12:53:19;2.63;;;2.30;;
8819;SDS011;4446;50.876;4.736;2022-07-29T12:55:47;5.25;;;2.60;;
8819;SDS011;4446;50.876;4.736;2022-07-29T12:58:26;3.17;;;2.50;;
8819;SDS011;4446;50.876;4.736;2022-07-29T13:01:06;3.00;;;2.70;;
8819;SDS011;4446;50.876;4.736;2022-07-29T13:03:46;3.42;;;2.42;;
8819;SDS011;4446;50.876;4.736;2022-07-29T13:06:28;2.83;;;2.42;;
8819;SDS011;4446;50.876;4.736;2022-07-29T13:09:05;3.22;;;2.38;;
8819;SDS011;4446;50.876;4.736;2022-07-29T13:11:34;3.40;;;2.60;;
8819;SDS011;4446;50.876;4.736;2022-07-29T13:14:02;3.13;;;2.40;;
8819;SDS011;4446;50.876;4.736;2022-07-29T13:16:31;3.25;;;2.10;;
8819;SDS011;4446;50.876;4.736;2022-07-29T13:19:06;3.10;;;2.40;;
8819;SDS011;4446;50.876;4.736;2022-07-29T13:21:36;2.78;;;2.10;;
8819;SDS011;4446;50.876;4.736;2022-07-29T13:24:05;3.53;;;2.42;;
8819;SDS011;4446;50.876;4.736;2022-07-29T13:26:33;4.35;;;2.88;;
8819;SDS011;4446;50.876;4.736;2022-07-29T13:29:01;3.90;;;2.42;;
8819;SDS011;4446;50.876;4.736;2022-07-29T13:31:28;2.63;;;2.35;;
8819;SDS011;4446;50.876;4.736;2022-07-29T13:33:58;2.70;;;2.50;;
8819;SDS011;4446;50.876;4.736;2022-07-29T13:36:25;2.85;;;2.55;;
8819;SDS011;4446;50.876;4.736;2022-07-29T13:38:52;2.75;;;2.50;;
8819;SDS011;4446;50.876;4.736;2022-07-29T13:41:19;4.80;;;2.70;;
8819;SDS011;4446;50.876;4.736;2022-07-29T13:43:46;3.90;;;2.60;;
8819;SDS011;4446;50.876;4.736;2022-07-29T13:46:13;3.50;;;2.83;;
8819;SDS011;4446;50.876;4.736;2022-07-29T13:48:40;2.72;;;2.30;;
8819;SDS011;4446;50.876;4.736;2022-07-29T13:51:08;4.25;;;2.33;;
8819;SDS011;4446;50.876;4.736;2022-07-29T13:53:35;4.55;;;2.83;;
8819;SDS011;4446;50.876;4.736;2022-07-29T13:56:02;4.13;;;2.83;;
8819;SDS011;4446;50.876;4.736;2022-07-29T13:58:31;3.45;;;2.70;;
8819;SDS011;4446;50.876;4.736;2022-07-29T14:00:58;4.07;;;2.40;;
8819;SDS011;4446;50.876;4.736;2022-07-29T14:03:26;5.22;;;2.65;;
8819;SDS011;4446;50.876;4.736;2022-07-29T14:05:53;3.80;;;2.90;;
8819;SDS011;4446;50.876;4.736;2022-07-29T14:08:22;4.80;;;3.08;;
8819;SDS011;4446;50.876;4.736;2022-07-29T14:10:49;2.65;;;2.42;;
8819;SDS011;4446;50.876;4.736;2022-07-29T14:13:16;6.75;;;2.63;;
8819;SDS011;4446;50.876;4.736;2022-07-29T14:15:43;4.55;;;2.65;;
8819;SDS011;4446;50.876;4.736;2022-07-29T14:18:11;3.00;;;2.63;;
8819;SDS011;4446;50.876;4.736;2022-07-29T14:20:38;2.60;;;2.40;;
8819;SDS011;4446;50.876;4.736;2022-07-29T14:23:05;5.50;;;2.88;;
8819;SDS011;4446;50.876;4.736;2022-07-29T14:25:33;3.30;;;3.00;;
8819;SDS011;4446;50.876;4.736;2022-07-29T14:28:00;2.97;;;2.70;;
8819;SDS011;4446;50.876;4.736;2022-07-29T14:30:27;5.97;;;2.70;;
8819;SDS011;4446;50.876;4.736;2022-07-29T14:32:54;3.95;;;3.22;;
8819;SDS011;4446;50.876;4.736;2022-07-29T14:35:21;4.20;;;3.50;;
8819;SDS011;4446;50.876;4.736;2022-07-29T14:37:48;4.28;;;3.38;;
8819;SDS011;4446;50.876;4.736;2022-07-29T14:40:15;4.38;;;3.95;;
8819;SDS011;4446;50.876;4.736;2022-07-29T14:42:44;4.40;;;4.00;;
8819;SDS011;4446;50.876;4.736;2022-07-29T14:45:11;4.05;;;3.50;;
8819;SDS011;4446;50.876;4.736;2022-07-29T14:47:38;5.40;;;4.15;;
8819;SDS011;4446;50.876;4.736;2022-07-29T14:50:05;4.18;;;3.78;;
8819;SDS011;4446;50.876;4.736;2022-07-29T14:52:33;4.00;;;3.60;;
8819;SDS011;4446;50.876;4.736;2022-07-29T14:55:01;5.50;;;4.28;;
8819;SDS011;4446;50.876;4.736;2022-07-29T14:57:28;7.00;;;4.25;;
8819;SDS011;4446;50.876;4.736;2022-07-29T14:59:56;4.55;;;4.03;;
8819;SDS011;4446;50.876;4.736;2022-07-29T15:02:24;4.63;;;3.95;;
8819;SDS011;4446;50.876;4.736;2022-07-29T15:04:51;5.53;;;3.90;;
8819;SDS011;4446;50.876;4.736;2022-07-29T15:07:18;4.43;;;3.90;;
8819;SDS011;4446;50.876;4.736;2022-07-29T15:09:45;4.90;;;3.58;;
8819;SDS011;4446;50.876;4.736;2022-07-29T15:12:12;3.70;;;2.95;;
8819;SDS011;4446;50.876;4.736;2022-07-29T15:14:40;3.47;;;3.17;;
8819;SDS011;4446;50.876;4.736;2022-07-29T15:17:09;3.92;;;2.92;;
8819;SDS011;4446;50.876;4.736;2022-07-29T15:19:36;4.85;;;3.30;;
8819;SDS011;4446;50.876;4.736;2022-07-29T15:22:03;5.50;;;3.17;;
8819;SDS011;4446;50.876;4.736;2022-07-29T15:24:30;3.70;;;3.40;;
8819;SDS011;4446;50.876;4.736;2022-07-29T15:26:58;5.50;;;4.07;;
8819;SDS011;4446;50.876;4.736;2022-07-29T15:29:25;5.18;;;3.60;;
8819;SDS011;4446;50.876;4.736;2022-07-29T15:31:52;3.83;;;3.45;;
8819;SDS011;4446;50.876;4.736;2022-07-29T15:34:20;5.93;;;3.83;;
8819;SDS011;4446;50.876;4.736;2022-07-29T15:36:48;4.90;;;3.65;;
8819;SDS011;4446;50.876;4.736;2022-07-29T15:39:16;5.15;;;3.47;;
8819;SDS011;4446;50.876;4.736;2022-07-29T15:41:43;3.78;;;3.47;;
8819;SDS011;4446;50.876;4.736;2022-07-29T15:44:10;3.90;;;3.50;;
8819;SDS011;4446;50.876;4.736;2022-07-29T15:46:37;2.75;;;2.55;;
8819;SDS011;4446;50.876;4.736;2022-07-29T15:49:23;5.40;;;3.20;;